Time;durP1;ratioP1;P1;durP2;ratioP2;P2;SDS_P1;SDS_P2;PMS_P1;PMS_P2;Temp;Humidity;BMP_temperature;BMP_pressure;BME280_temperature;BME280_humidity;BME280_pressure;Samples;Min_cycle;Max_cycle;Signal;HPM_P1;HPM_P2
2022/10/26 00:01:10;;;;;;;1.55;1.40;;;19.70;65.70;;;;;;5106647;27;44768;-59
2022/10/26 00:03:40;;;;;;;1.50;1.40;;;19.70;65.70;;;;;;5114755;27;43474;-59
2022/10/26 00:06:14;;;;;;;1.38;1.38;;;19.70;65.60;;;;;;5110474;27;43644;-59
2022/10/26 00:08:42;;;;;;;1.40;1.30;;;19.70;65.70;;;;;;5110439;27;44957;-59
2022/10/26 00:11:10;;;;;;;1.67;1.58;;;19.70;65.70;;;;;;5110226;27;43418;-59
2022/10/26 00:13:39;;;;;;;1.40;1.30;;;19.70;65.70;;;;;;5110061;27;43478;-59
2022/10/26 00:16:12;;;;;;;1.17;1.17;;;19.70;65.70;;;;;;5119356;27;43606;-59
2022/10/26 00:18:39;;;;;;;1.40;1.40;;;19.60;65.60;;;;;;5109673;27;43847;-59
2022/10/26 00:21:09;;;;;;;1.20;1.20;;;19.60;65.60;;;;;;5110145;27;44032;-60
2022/10/26 00:23:37;;;;;;;1.30;1.30;;;19.60;65.60;;;;;;5112045;27;43473;-59
2022/10/26 00:26:05;;;;;;;1.42;1.33;;;19.60;65.60;;;;;;5109951;27;43624;-60
2022/10/26 00:28:33;;;;;;;1.30;1.20;;;19.60;65.60;;;;;;5109232;27;44961;-59
2022/10/26 00:31:03;;;;;;;1.55;1.27;;;19.60;65.60;;;;;;5092555;27;43510;-59
2022/10/26 00:33:31;;;;;;;1.80;1.23;;;19.60;65.60;;;;;;5110828;27;43463;-60
2022/10/26 00:35:59;;;;;;;1.40;1.30;;;19.60;65.60;;;;;;5110079;27;43434;-60
2022/10/26 00:38:26;;;;;;;1.50;1.40;;;19.60;65.60;;;;;;5109684;27;45133;-59
2022/10/26 00:40:54;;;;;;;1.55;1.45;;;19.60;65.60;;;;;;5114962;27;43976;-59
2022/10/26 00:43:21;;;;;;;1.40;1.30;;;19.60;65.60;;;;;;5120709;27;43464;-60
2022/10/26 00:45:52;;;;;;;1.83;1.38;;;19.60;65.60;;;;;;5109442;27;43563;-60
2022/10/26 00:48:33;;;;;;;1.20;1.20;;;19.60;65.60;;;;;;5109106;27;44633;-60
2022/10/26 00:51:03;;;;;;;2.10;1.23;;;19.50;65.60;;;;;;5123004;27;43982;-60
2022/10/26 00:53:32;;;;;;;1.20;1.20;;;19.50;65.50;;;;;;5117517;27;43390;-59
2022/10/26 00:56:01;;;;;;;1.30;1.30;;;19.50;65.60;;;;;;5109029;27;43994;-60
2022/10/26 00:58:29;;;;;;;1.15;1.13;;;19.60;65.60;;;;;;5114272;27;45085;-59
2022/10/26 01:00:56;;;;;;;1.45;1.35;;;19.50;65.60;;;;;;5109778;27;43976;-59
2022/10/26 01:03:24;;;;;;;1.30;1.30;;;19.50;65.50;;;;;;5108558;27;43813;-59
2022/10/26 01:05:55;;;;;;;1.33;1.23;;;19.50;65.60;;;;;;5109212;27;43605;-60
2022/10/26 01:08:24;;;;;;;1.42;1.33;;;19.50;65.60;;;;;;5110218;27;44642;-59
2022/10/26 01:10:51;;;;;;;1.20;1.20;;;19.50;65.60;;;;;;5110427;27;43912;-60
2022/10/26 01:13:20;;;;;;;1.98;1.30;;;19.50;66.30;;;;;;5107883;27;43510;-60
2022/10/26 01:16:16;;;;;;;1.35;1.25;;;19.50;65.60;;;;;;5108031;27;43456;-59
2022/10/26 01:19:05;;;;;;;1.02;1.00;;;19.50;65.60;;;;;;5109462;27;44050;-60
2022/10/26 01:21:45;;;;;;;1.10;1.00;;;19.50;65.60;;;;;;5108409;27;43427;-59
2022/10/26 01:24:31;;;;;;;1.13;1.08;;;19.40;65.50;;;;;;5110884;27;43486;-60
2022/10/26 01:27:20;;;;;;;1.50;1.17;;;19.40;65.50;;;;;;5109166;27;43906;-59
2022/10/26 01:30:09;;;;;;;1.40;1.30;;;19.40;65.60;;;;;;5108004;27;44615;-60
2022/10/26 01:32:50;;;;;;;1.13;1.00;;;19.40;65.60;;;;;;5108600;27;44097;-59
2022/10/26 01:35:29;;;;;;;1.30;1.20;;;19.40;65.60;;;;;;5108838;27;43400;-60
2022/10/26 01:38:18;;;;;;;1.20;1.10;;;19.40;65.60;;;;;;5110365;27;43506;-60
2022/10/26 01:40:53;;;;;;;1.30;1.20;;;19.40;65.60;;;;;;5122223;27;44723;-59
2022/10/26 01:43:23;;;;;;;1.27;1.17;;;19.40;65.60;;;;;;5111895;27;43441;-60
2022/10/26 01:45:53;;;;;;;1.15;1.15;;;19.40;65.60;;;;;;5109864;27;43424;-60
2022/10/26 01:48:22;;;;;;;1.30;1.20;;;19.40;65.60;;;;;;5109999;27;43640;-60
2022/10/26 01:50:52;;;;;;;0.93;0.93;;;19.30;65.60;;;;;;5107669;27;44802;-60
2022/10/26 01:53:20;;;;;;;1.30;1.20;;;19.40;65.60;;;;;;5086166;27;43452;-60
2022/10/26 01:55:52;;;;;;;1.15;1.05;;;19.40;65.60;;;;;;5087913;27;43452;-59
2022/10/26 01:59:10;;;;;;;1.95;1.25;;;19.40;65.60;;;;;;5091144;27;43569;-59
2022/10/26 02:01:56;;;;;;;1.30;1.20;;;19.30;65.50;;;;;;5045251;27;45028;-60
2022/10/26 02:04:26;;;;;;;1.30;1.20;;;19.40;65.60;;;;;;5098831;27;44252;-60
2022/10/26 02:07:23;;;;;;;1.03;1.03;;;19.40;65.60;;;;;;5087225;27;43441;-60
2022/10/26 02:09:53;;;;;;;1.30;1.20;;;19.30;65.60;;;;;;5087912;27;43983;-60
2022/10/26 02:12:32;;;;;;;1.77;1.30;;;19.40;65.60;;;;;;5085247;27;45151;-60
2022/10/26 02:15:08;;;;;;;1.90;1.10;;;19.30;65.60;;;;;;5086845;27;43500;-60
2022/10/26 02:18:03;;;;;;;1.10;1.10;;;19.30;65.60;;;;;;5087658;27;43432;-60
2022/10/26 02:20:35;;;;;;;1.20;1.20;;;19.30;65.50;;;;;;5085630;27;43545;-60
2022/10/26 02:23:05;;;;;;;1.40;1.20;;;19.30;65.60;;;;;;5086676;27;43816;-60
2022/10/26 02:25:38;;;;;;;1.30;1.20;;;19.30;65.50;;;;;;5088319;27;43797;-60
2022/10/26 02:28:09;;;;;;;1.10;1.00;;;19.30;65.60;;;;;;5087272;27;43324;-60
2022/10/26 02:30:39;;;;;;;1.20;1.10;;;19.30;65.50;;;;;;5087119;27;43524;-60
2022/10/26 02:33:09;;;;;;;1.27;1.27;;;19.30;65.50;;;;;;5089369;27;44875;-59
2022/10/26 02:35:39;;;;;;;1.00;1.00;;;19.30;65.50;;;;;;5086146;27;43417;-60
2022/10/26 02:38:09;;;;;;;1.25;1.17;;;19.30;65.50;;;;;;5087581;27;43376;-60
2022/10/26 02:40:37;;;;;;;1.10;1.10;;;19.30;65.50;;;;;;5088590;27;44012;-60
2022/10/26 02:43:10;;;;;;;1.00;1.00;;;19.20;65.50;;;;;;5097791;27;43916;-60
2022/10/26 02:45:45;;;;;;;1.17;1.17;;;19.20;65.50;;;;;;5086501;27;43515;-60
2022/10/26 02:48:14;;;;;;;1.25;1.15;;;19.20;65.50;;;;;;5096881;27;43437;-60
2022/10/26 02:50:44;;;;;;;1.10;0.93;;;19.20;65.60;;;;;;5100089;27;43590;-59
2022/10/26 02:53:17;;;;;;;1.23;1.20;;;19.20;65.50;;;;;;5102143;27;43875;-60
2022/10/26 02:55:50;;;;;;;1.20;1.20;;;19.20;65.50;;;;;;5106783;27;44069;-60
2022/10/26 02:58:24;;;;;;;1.20;1.20;;;19.20;65.50;;;;;;5111797;27;43381;-59
2022/10/26 03:00:52;;;;;;;1.52;1.42;;;19.20;65.50;;;;;;5107746;27;43508;-60
2022/10/26 03:03:20;;;;;;;1.40;1.20;;;19.20;65.50;;;;;;5111282;27;43747;-60
2022/10/26 03:05:48;;;;;;;1.23;1.20;;;19.20;65.50;;;;;;5114793;27;43971;-60
2022/10/26 03:08:15;;;;;;;1.45;1.35;;;19.20;65.50;;;;;;5107049;27;43481;-60
2022/10/26 03:10:44;;;;;;;1.60;1.50;;;19.20;65.50;;;;;;5108183;27;43525;-59
2022/10/26 03:13:13;;;;;;;1.20;1.13;;;19.20;65.50;;;;;;5106966;27;44067;-60
2022/10/26 03:15:40;;;;;;;1.00;1.00;;;19.20;65.50;;;;;;5087608;27;43668;-60
2022/10/26 03:18:08;;;;;;;1.30;1.20;;;19.20;65.50;;;;;;5108379;27;43407;-60
2022/10/26 03:20:35;;;;;;;1.30;1.20;;;19.10;65.40;;;;;;5109666;27;43605;-60
2022/10/26 03:23:03;;;;;;;1.42;1.33;;;19.10;65.50;;;;;;5105973;27;44331;-60
2022/10/26 03:25:30;;;;;;;1.50;1.40;;;19.20;65.50;;;;;;5106222;27;43916;-60
2022/10/26 03:27:59;;;;;;;1.67;1.40;;;19.20;65.50;;;;;;5108095;27;43554;-60
2022/10/26 03:30:27;;;;;;;1.33;1.23;;;19.20;65.50;;;;;;5109022;27;43485;-60
2022/10/26 03:32:55;;;;;;;1.10;1.10;;;19.10;65.50;;;;;;5107179;27;44028;-60
2022/10/26 03:35:22;;;;;;;1.42;1.33;;;19.10;65.40;;;;;;5106382;27;43479;-59
2022/10/26 03:37:50;;;;;;;1.25;1.15;;;19.10;65.40;;;;;;5109668;27;43506;-60
2022/10/26 03:40:18;;;;;;;1.27;1.20;;;19.10;65.40;;;;;;5117956;27;43964;-59
2022/10/26 03:42:45;;;;;;;1.40;1.30;;;19.10;65.40;;;;;;5122988;27;44074;-60
2022/10/26 03:45:13;;;;;;;1.10;1.10;;;19.10;65.40;;;;;;5116674;27;43382;-60
2022/10/26 03:47:48;;;;;;;1.38;1.30;;;19.10;65.40;;;;;;5111604;27;43474;-60
2022/10/26 03:50:18;;;;;;;1.17;1.17;;;19.10;65.40;;;;;;5111652;27;43435;-60
2022/10/26 03:52:47;;;;;;;1.52;1.27;;;19.10;65.40;;;;;;5109725;27;43881;-60
2022/10/26 03:55:15;;;;;;;1.20;1.20;;;19.10;65.40;;;;;;5110049;27;44308;-60
2022/10/26 03:57:43;;;;;;;1.38;1.25;;;19.10;65.40;;;;;;5112507;27;43394;-59
2022/10/26 04:00:16;;;;;;;1.17;1.10;;;19.00;65.40;;;;;;5105200;27;43610;-60
2022/10/26 04:02:47;;;;;;;1.40;1.30;;;19.10;65.40;;;;;;5109946;27;44044;-60
2022/10/26 04:05:15;;;;;;;1.30;1.30;;;19.00;65.40;;;;;;5109472;27;43862;-60
2022/10/26 04:07:43;;;;;;;1.48;1.20;;;19.00;65.30;;;;;;5095392;27;43457;-60
2022/10/26 04:10:10;;;;;;;1.23;1.05;;;19.10;65.40;;;;;;5110417;27;43600;-59
2022/10/26 04:12:38;;;;;;;1.40;1.30;;;19.00;65.40;;;;;;5109144;27;43805;-60
2022/10/26 04:15:06;;;;;;;1.15;1.10;;;19.00;65.30;;;;;;5110120;27;43998;-60
2022/10/26 04:17:34;;;;;;;1.38;1.27;;;19.00;65.30;;;;;;5112705;27;43434;-60
2022/10/26 04:20:04;;;;;;;1.10;1.10;;;19.00;65.30;;;;;;5109970;27;43423;-60
2022/10/26 04:22:37;;;;;;;1.60;1.50;;;19.00;65.30;;;;;;5109378;27;43892;-59
2022/10/26 04:25:06;;;;;;;1.20;1.20;;;19.00;65.30;;;;;;5110833;27;43990;-60
2022/10/26 04:27:34;;;;;;;1.20;1.20;;;19.00;65.30;;;;;;5111013;27;43488;-60
2022/10/26 04:30:01;;;;;;;1.40;1.30;;;19.00;65.30;;;;;;5092206;27;43439;-59
2022/10/26 04:32:29;;;;;;;1.15;1.13;;;19.00;65.30;;;;;;5108864;27;43836;-60
2022/10/26 04:34:56;;;;;;;1.35;1.20;;;19.00;65.30;;;;;;5111312;27;43439;-60
2022/10/26 04:37:23;;;;;;;1.67;1.30;;;19.00;65.30;;;;;;5111783;27;43473;-60
2022/10/26 04:39:51;;;;;;;1.20;1.20;;;19.00;65.30;;;;;;5109058;27;43651;-60
2022/10/26 04:42:18;;;;;;;1.40;1.30;;;19.00;65.30;;;;;;5118649;27;43995;-60
2022/10/26 04:44:46;;;;;;;1.02;1.00;;;18.90;65.30;;;;;;5112829;27;43788;-60
2022/10/26 04:47:13;;;;;;;1.23;1.23;;;18.90;65.30;;;;;;5111154;27;43481;-60
2022/10/26 04:49:40;;;;;;;1.45;1.35;;;18.90;65.30;;;;;;5111207;27;43687;-60
2022/10/26 04:52:08;;;;;;;1.35;1.23;;;18.90;65.30;;;;;;5115444;27;45092;-60
2022/10/26 04:54:35;;;;;;;1.30;1.30;;;18.90;65.20;;;;;;5110089;27;43529;-60
2022/10/26 04:57:03;;;;;;;1.25;1.20;;;18.90;65.30;;;;;;5111604;27;43496;-60
2022/10/26 04:59:30;;;;;;;1.58;1.48;;;18.90;65.20;;;;;;5109868;27;43501;-60
2022/10/26 05:01:57;;;;;;;1.20;1.10;;;18.90;65.30;;;;;;5107334;27;44800;-60
2022/10/26 05:04:25;;;;;;;1.75;1.65;;;18.90;65.20;;;;;;5111295;27;43517;-60
2022/10/26 05:06:53;;;;;;;1.40;1.30;;;18.90;65.30;;;;;;5116808;27;43504;-59
2022/10/26 05:09:20;;;;;;;2.30;1.52;;;18.90;65.30;;;;;;5119000;27;43560;-59
2022/10/26 05:11:47;;;;;;;1.55;1.45;;;18.90;65.30;;;;;;5108635;27;44082;-59
2022/10/26 05:14:15;;;;;;;1.40;1.40;;;18.90;65.30;;;;;;5118216;27;43396;-59
2022/10/26 05:16:43;;;;;;;1.60;1.50;;;18.90;65.30;;;;;;5101436;27;43516;-59
2022/10/26 05:19:10;;;;;;;1.50;1.40;;;18.90;65.30;;;;;;5124433;27;43563;-59
2022/10/26 05:21:38;;;;;;;1.63;1.52;;;18.90;65.20;;;;;;5115561;27;43886;-59
2022/10/26 05:24:06;;;;;;;2.03;1.80;;;18.90;65.20;;;;;;5118964;27;43954;-60
2022/10/26 05:26:38;;;;;;;1.70;1.60;;;18.90;65.20;;;;;;5121703;27;43398;-59
2022/10/26 05:29:06;;;;;;;2.13;1.60;;;18.90;65.30;;;;;;5118590;27;44134;-59
2022/10/26 05:31:34;;;;;;;1.58;1.48;;;18.90;65.30;;;;;;5112630;27;43876;-59
2022/10/26 05:34:02;;;;;;;1.80;1.70;;;18.90;65.20;;;;;;5120024;27;43729;-59
2022/10/26 05:36:29;;;;;;;2.13;1.50;;;18.90;65.20;;;;;;5118965;27;43358;-59
2022/10/26 05:38:57;;;;;;;1.58;1.48;;;18.90;65.20;;;;;;5114105;27;43526;-59
2022/10/26 05:41:25;;;;;;;1.63;1.52;;;18.90;65.20;;;;;;5114529;27;43784;-59
2022/10/26 05:43:52;;;;;;;1.60;1.50;;;18.90;65.20;;;;;;5119438;27;43793;-59
2022/10/26 05:46:20;;;;;;;1.70;1.60;;;18.80;65.20;;;;;;5120674;27;43472;-59
2022/10/26 05:48:47;;;;;;;2.08;1.45;;;18.80;65.20;;;;;;5108997;27;43513;-59
2022/10/26 05:51:15;;;;;;;1.70;1.50;;;18.90;65.30;;;;;;5116317;27;44133;-59
2022/10/26 05:53:42;;;;;;;1.70;1.60;;;18.80;65.20;;;;;;5110006;27;43412;-59
2022/10/26 05:56:22;;;;;;;1.80;1.70;;;18.90;65.30;;;;;;5109062;27;43408;-59
2022/10/26 05:58:50;;;;;;;1.60;1.50;;;18.90;65.30;;;;;;5118789;27;43483;-59
2022/10/26 06:01:23;;;;;;;2.22;1.80;;;18.80;65.30;;;;;;5115457;27;46042;-59
2022/10/26 06:04:01;;;;;;;1.42;1.33;;;18.80;65.30;;;;;;5117784;27;43481;-59
2022/10/26 06:06:37;;;;;;;1.70;1.60;;;18.80;65.30;;;;;;5123665;27;43377;-59
2022/10/26 06:09:05;;;;;;;1.70;1.55;;;18.80;65.30;;;;;;5113930;27;43486;-59
2022/10/26 06:11:33;;;;;;;1.77;1.60;;;18.80;65.30;;;;;;5118151;27;44988;-59
2022/10/26 06:14:00;;;;;;;1.75;1.60;;;18.90;65.30;;;;;;5119162;27;44043;-59
2022/10/26 06:16:37;;;;;;;1.70;1.60;;;18.80;65.20;;;;;;5115835;27;43402;-58
2022/10/26 06:19:31;;;;;;;1.80;1.70;;;18.90;65.30;;;;;;5111374;27;43521;-59
2022/10/26 06:22:10;;;;;;;1.73;1.58;;;18.80;65.30;;;;;;5111164;27;45040;-59
2022/10/26 06:24:45;;;;;;;1.73;1.63;;;18.80;65.30;;;;;;5122807;27;43447;-59
2022/10/26 06:27:23;;;;;;;1.60;1.50;;;18.80;65.30;;;;;;5112534;27;43410;-59
2022/10/26 06:29:56;;;;;;;1.55;1.45;;;18.80;65.50;;;;;;5107820;27;43410;-59
2022/10/26 06:32:23;;;;;;;1.92;1.70;;;18.80;65.50;;;;;;5119318;27;44988;-59
2022/10/26 06:35:13;;;;;;;1.50;1.40;;;18.80;65.40;;;;;;5105153;27;43436;-59
2022/10/26 06:37:45;;;;;;;1.50;1.40;;;18.80;65.40;;;;;;5111515;27;43442;-59
2022/10/26 06:40:17;;;;;;;2.08;1.98;;;18.80;65.50;;;;;;5115575;27;43429;-58
2022/10/26 06:42:44;;;;;;;3.42;2.97;;;18.80;65.40;;;;;;5112041;27;43887;-60
2022/10/26 06:45:16;;;;;;;3.55;2.80;;;18.80;65.40;;;;;;5091043;27;44061;-59
2022/10/26 06:48:21;;;;;;;3.63;3.13;;;18.80;65.50;;;;;;5109648;27;43408;-59
2022/10/26 06:50:51;;;;;;;2.50;2.30;;;18.80;65.40;;;;;;5093667;27;43532;-59
2022/10/26 06:53:31;;;;;;;2.72;2.42;;;18.80;65.60;;;;;;5117593;27;44040;-59
2022/10/26 06:55:59;;;;;;;2.80;2.60;;;18.80;65.50;;;;;;5110166;27;43565;-59
2022/10/26 06:58:35;;;;;;;3.33;3.03;;;18.80;65.50;;;;;;5116108;27;43388;-60
2022/10/26 07:01:03;;;;;;;4.82;2.88;;;18.90;65.50;;;;;;5118976;27;43969;-57
2022/10/26 07:03:30;;;;;;;3.83;2.70;;;18.90;65.60;;;;;;5123050;27;43801;-59
2022/10/26 07:05:58;;;;;;;3.45;2.88;;;19.00;65.60;;;;;;5098543;27;43678;-58
2022/10/26 07:08:26;;;;;;;2.95;2.55;;;19.10;65.60;;;;;;5111736;27;43445;-58
2022/10/26 07:10:53;;;;;;;3.35;2.65;;;19.20;65.40;;;;;;5112098;27;43526;-58
2022/10/26 07:13:20;;;;;;;3.55;2.45;;;19.40;65.40;;;;;;5118867;27;44982;-58
2022/10/26 07:15:48;;;;;;;2.72;2.50;;;19.60;65.30;;;;;;5118115;27;43965;-59
2022/10/26 07:18:15;;;;;;;3.33;2.75;;;19.80;65.30;;;;;;5114672;27;43493;-60
2022/10/26 07:20:43;;;;;;;3.95;2.42;;;19.90;65.00;;;;;;5114174;27;43587;-59
2022/10/26 07:23:10;;;;;;;3.17;2.42;;;20.10;64.60;;;;;;5112170;27;43874;-59
2022/10/26 07:25:39;;;;;;;2.88;2.45;;;20.20;64.20;;;;;;5115050;27;43467;-59
2022/10/26 07:28:09;;;;;;;2.70;2.45;;;20.40;63.90;;;;;;5117945;27;43435;-59
2022/10/26 07:30:38;;;;;;;2.70;2.50;;;20.50;63.60;;;;;;5114175;27;43662;-59
2022/10/26 07:33:13;;;;;;;2.85;2.20;;;20.60;63.30;;;;;;5115430;27;44954;-59
2022/10/26 07:35:45;;;;;;;3.88;2.65;;;20.80;63.20;;;;;;5111960;27;43441;-59
2022/10/26 07:38:12;;;;;;;3.95;3.17;;;20.90;63.00;;;;;;5119458;27;43468;-59
2022/10/26 07:40:40;;;;;;;2.78;2.20;;;20.90;62.90;;;;;;5090423;27;43472;-59
2022/10/26 07:43:07;;;;;;;3.40;2.40;;;21.00;62.70;;;;;;5111540;27;44784;-59
2022/10/26 07:45:35;;;;;;;2.28;2.13;;;21.10;62.40;;;;;;5108667;27;43540;-60
2022/10/26 07:48:03;;;;;;;2.42;2.22;;;21.10;62.40;;;;;;5117973;27;43959;-59
2022/10/26 07:50:30;;;;;;;2.00;1.90;;;21.20;63.00;;;;;;5116758;27;43612;-60
2022/10/26 07:52:58;;;;;;;2.13;1.80;;;21.30;62.30;;;;;;5103548;27;44951;-60
2022/10/26 07:55:27;;;;;;;2.10;1.90;;;21.40;62.40;;;;;;5111337;27;44070;-60
2022/10/26 07:57:54;;;;;;;2.40;2.20;;;21.50;62.20;;;;;;5117162;27;43547;-60
2022/10/26 08:00:22;;;;;;;2.20;2.00;;;21.60;62.00;;;;;;5116716;27;43549;-59
2022/10/26 08:02:50;;;;;;;2.22;1.90;;;21.70;61.80;;;;;;5090399;27;45796;-60
2022/10/26 08:05:18;;;;;;;2.90;1.90;;;21.80;61.80;;;;;;5118234;27;43484;-60
2022/10/26 08:07:46;;;;;;;2.00;1.90;;;21.80;61.50;;;;;;5112696;27;43453;-60
2022/10/26 08:10:14;;;;;;;5.22;2.15;;;21.90;61.30;;;;;;5113979;27;43687;-59
2022/10/26 08:12:42;;;;;;;2.55;1.70;;;22.00;61.50;;;;;;5110287;27;44715;-61
2022/10/26 08:15:10;;;;;;;3.03;1.77;;;22.10;61.30;;;;;;5114868;27;43442;-61
2022/10/26 08:17:37;;;;;;;2.05;1.80;;;22.10;61.10;;;;;;5116826;27;43585;-61
2022/10/26 08:20:06;;;;;;;1.73;1.63;;;22.20;61.00;;;;;;5118634;27;43481;-60
2022/10/26 08:22:33;;;;;;;1.83;1.73;;;22.30;60.90;;;;;;5113490;27;44481;-62
2022/10/26 08:25:00;;;;;;;1.90;1.80;;;22.40;60.70;;;;;;5122349;27;44027;-61
2022/10/26 08:27:28;;;;;;;2.72;1.70;;;22.50;60.70;;;;;;5097105;27;43514;-61
2022/10/26 08:29:55;;;;;;;1.63;1.52;;;22.60;60.60;;;;;;5117854;27;43628;-60
2022/10/26 08:32:23;;;;;;;1.90;1.80;;;22.70;60.30;;;;;;5120352;27;44229;-60
2022/10/26 08:34:50;;;;;;;2.20;1.80;;;22.80;60.20;;;;;;5121212;27;43402;-61
2022/10/26 08:37:17;;;;;;;2.67;1.52;;;22.80;60.00;;;;;;5115450;27;43488;-61
2022/10/26 08:39:45;;;;;;;1.67;1.58;;;22.90;60.00;;;;;;5112667;27;43623;-60
2022/10/26 08:42:24;;;;;;;2.75;1.50;;;22.80;59.90;;;;;;5123289;27;45009;-61
2022/10/26 08:44:59;;;;;;;4.15;1.90;;;22.90;60.00;;;;;;5119149;27;43450;-61
2022/10/26 08:47:42;;;;;;;1.75;1.63;;;22.90;59.80;;;;;;5099243;27;43528;-61
2022/10/26 08:50:32;;;;;;;2.22;1.60;;;22.90;59.80;;;;;;5125909;27;43434;-60
2022/10/26 08:53:17;;;;;;;1.60;1.50;;;23.00;59.70;;;;;;5120384;27;43796;-61
2022/10/26 08:55:53;;;;;;;3.03;1.40;;;23.00;59.70;;;;;;5117886;27;44147;-60
2022/10/26 08:58:26;;;;;;;1.83;1.50;;;23.10;59.70;;;;;;5120864;27;43453;-60
2022/10/26 09:00:53;;;;;;;1.60;1.50;;;23.10;59.80;;;;;;5117693;27;43425;-61
2022/10/26 09:03:21;;;;;;;2.35;1.60;;;23.10;59.50;;;;;;5118826;27;43817;-60
2022/10/26 09:05:57;;;;;;;4.45;1.52;;;23.00;60.00;;;;;;5115218;27;44113;-60
2022/10/26 09:08:50;;;;;;;2.67;1.50;;;23.00;60.30;;;;;;5119935;27;43478;-60
2022/10/26 09:11:33;;;;;;;1.42;1.33;;;23.00;60.10;;;;;;5068874;27;43565;-60
2022/10/26 09:14:06;;;;;;;1.48;1.33;;;22.90;60.00;;;;;;5112825;27;44096;-60
2022/10/26 09:16:37;;;;;;;1.63;1.25;;;22.90;60.20;;;;;;5114143;27;44032;-60
2022/10/26 09:19:33;;;;;;;1.38;1.30;;;22.80;60.20;;;;;;5120167;27;43491;-60
2022/10/26 09:22:06;;;;;;;1.88;1.27;;;22.80;60.40;;;;;;5110952;27;44040;-60
2022/10/26 09:24:41;;;;;;;2.60;1.35;;;22.70;60.50;;;;;;5121973;27;44996;-60
2022/10/26 09:27:27;;;;;;;2.95;1.60;;;22.70;60.50;;;;;;5120804;27;43426;-60
2022/10/26 09:30:06;;;;;;;1.58;1.40;;;22.70;60.60;;;;;;5120477;27;43451;-60
2022/10/26 09:32:46;;;;;;;1.30;1.20;;;22.60;60.80;;;;;;5116300;27;43576;-60
2022/10/26 09:35:14;;;;;;;2.05;1.30;;;22.50;60.70;;;;;;5093697;27;44056;-60
2022/10/26 09:37:49;;;;;;;3.55;1.30;;;22.50;60.80;;;;;;5121111;27;43979;-59
2022/10/26 09:41:12;;;;;;;2.08;1.30;;;22.50;61.00;;;;;;5115753;27;43480;-60
2022/10/26 09:43:49;;;;;;;1.50;1.30;;;22.40;61.00;;;;;;5078472;27;43576;-60
2022/10/26 09:46:22;;;;;;;2.08;1.30;;;22.30;61.10;;;;;;5099166;27;44557;-60
2022/10/26 09:49:06;;;;;;;1.33;1.15;;;22.30;61.20;;;;;;5110364;27;43433;-60
2022/10/26 09:51:37;;;;;;;1.42;1.20;;;22.20;61.30;;;;;;5113862;27;43461;-60
2022/10/26 09:54:14;;;;;;;1.40;1.30;;;22.20;61.30;;;;;;5100159;27;43628;-60
2022/10/26 09:56:54;;;;;;;1.20;1.20;;;22.20;61.50;;;;;;5096763;27;44079;-60
2022/10/26 09:59:24;;;;;;;1.20;1.10;;;22.10;61.70;;;;;;5097935;27;43652;-61
2022/10/26 10:01:52;;;;;;;1.80;1.30;;;22.10;61.70;;;;;;5099690;27;43388;-60
2022/10/26 10:04:22;;;;;;;1.83;1.25;;;22.10;61.70;;;;;;5098095;27;43517;-60
2022/10/26 10:07:14;;;;;;;1.20;1.10;;;22.10;61.60;;;;;;5097330;27;44147;-60
2022/10/26 10:09:42;;;;;;;1.75;1.40;;;22.10;61.70;;;;;;5096916;27;43466;-60
2022/10/26 10:12:19;;;;;;;1.73;1.10;;;22.00;61.70;;;;;;5100274;27;43419;-60
2022/10/26 10:14:58;;;;;;;1.42;1.33;;;22.10;61.80;;;;;;5098042;27;43383;-60
2022/10/26 10:17:26;;;;;;;2.15;1.20;;;22.00;61.80;;;;;;5091279;27;43994;-61
2022/10/26 10:20:05;;;;;;;1.15;1.15;;;22.00;61.90;;;;;;5097587;27;43374;-60
2022/10/26 10:22:32;;;;;;;1.83;1.08;;;22.00;61.90;;;;;;5100210;27;43449;-60
2022/10/26 10:25:02;;;;;;;1.35;1.20;;;22.00;62.20;;;;;;5100128;27;43433;-60
2022/10/26 10:27:32;;;;;;;1.27;1.10;;;21.90;62.20;;;;;;5100579;27;43939;-61
2022/10/26 10:30:26;;;;;;;1.15;0.90;;;21.90;62.20;;;;;;5100533;27;43516;-60
2022/10/26 10:33:09;;;;;;;1.13;1.02;;;21.90;62.30;;;;;;5089827;27;43427;-61
2022/10/26 10:35:46;;;;;;;2.70;1.05;;;21.90;62.40;;;;;;5096385;27;43446;-61
2022/10/26 10:38:20;;;;;;;1.20;1.10;;;21.90;62.40;;;;;;5090891;27;44133;-61
2022/10/26 10:41:02;;;;;;;1.33;1.23;;;21.90;62.30;;;;;;5091415;27;43399;-60
2022/10/26 10:43:30;;;;;;;1.92;1.20;;;21.80;62.30;;;;;;5091705;27;43444;-60
2022/10/26 10:45:58;;;;;;;1.67;1.20;;;21.80;62.50;;;;;;5094715;27;43416;-60
2022/10/26 10:48:28;;;;;;;1.08;1.00;;;21.80;62.60;;;;;;5100242;27;43841;-59
2022/10/26 10:50:57;;;;;;;0.95;0.88;;;21.80;62.60;;;;;;5097452;27;43374;-60
2022/10/26 10:53:36;;;;;;;1.05;1.00;;;21.70;62.50;;;;;;5094182;27;43431;-60
2022/10/26 10:56:12;;;;;;;1.33;0.90;;;21.70;62.50;;;;;;5097593;27;43448;-60
2022/10/26 10:58:53;;;;;;;1.00;0.90;;;21.70;62.70;;;;;;5102900;27;43788;-59
2022/10/26 11:01:24;;;;;;;1.00;0.90;;;21.70;62.70;;;;;;5089308;27;43497;-60
2022/10/26 11:04:39;;;;;;;1.10;1.00;;;21.70;62.80;;;;;;5102423;27;43520;-60
2022/10/26 11:07:08;;;;;;;1.17;1.08;;;21.70;62.80;;;;;;5082049;27;43472;-60
2022/10/26 11:09:40;;;;;;;1.55;1.23;;;21.60;62.80;;;;;;5102274;27;43788;-60
2022/10/26 11:12:31;;;;;;;1.25;1.00;;;21.60;63.00;;;;;;5095963;27;44245;-60
2022/10/26 11:15:06;;;;;;;1.27;0.90;;;21.60;63.00;;;;;;5097641;27;43423;-60
2022/10/26 11:18:14;;;;;;;1.38;0.90;;;21.60;63.20;;;;;;5094456;27;44054;-60
2022/10/26 11:20:59;;;;;;;1.50;1.00;;;21.60;63.20;;;;;;5077366;27;43956;-60
2022/10/26 11:23:29;;;;;;;1.90;1.05;;;21.60;63.20;;;;;;5101213;27;43551;-59
2022/10/26 11:26:05;;;;;;;1.65;1.10;;;21.60;63.20;;;;;;5082759;27;43404;-59
2022/10/26 11:29:02;;;;;;;1.10;1.10;;;21.60;63.20;;;;;;5100306;27;43448;-59
2022/10/26 11:31:43;;;;;;;1.08;0.80;;;21.60;63.20;;;;;;5098502;27;44215;-59
2022/10/26 11:34:25;;;;;;;1.13;1.02;;;21.60;63.20;;;;;;5092521;27;43501;-59
2022/10/26 11:37:04;;;;;;;0.80;0.80;;;21.60;63.10;;;;;;5097589;27;43431;-60
2022/10/26 11:39:40;;;;;;;1.00;0.90;;;21.60;63.10;;;;;;5075268;27;43496;-60
2022/10/26 11:42:18;;;;;;;1.40;0.80;;;21.60;63.10;;;;;;5099219;27;44043;-59
2022/10/26 11:44:56;;;;;;;1.20;0.90;;;21.60;62.90;;;;;;5097859;27;43487;-60
2022/10/26 11:47:43;;;;;;;0.90;0.90;;;21.60;63.60;;;;;;5097367;27;43427;-59
2022/10/26 11:50:18;;;;;;;1.23;1.00;;;21.70;62.90;;;;;;5097921;27;43614;-59
2022/10/26 11:53:09;;;;;;;1.00;0.90;;;21.60;62.90;;;;;;5103060;27;43798;-61
2022/10/26 11:55:40;;;;;;;0.80;0.80;;;21.60;62.90;;;;;;5117257;27;43607;-59
2022/10/26 11:58:10;;;;;;;1.08;0.85;;;21.60;62.90;;;;;;5121829;27;43461;-59
2022/10/26 12:00:56;;;;;;;1.10;0.93;;;21.60;63.10;;;;;;5118024;27;43994;-59
2022/10/26 12:03:34;;;;;;;0.80;0.80;;;21.60;63.00;;;;;;5117453;27;43860;-60
2022/10/26 12:06:01;;;;;;;0.98;0.93;;;21.60;63.00;;;;;;5121154;27;43677;-60
2022/10/26 12:08:40;;;;;;;0.98;0.68;;;21.60;63.10;;;;;;5122675;27;43451;-60
2022/10/26 12:11:32;;;;;;;1.08;0.80;;;21.60;63.20;;;;;;5098423;27;43483;-59
2022/10/26 12:14:31;;;;;;;0.77;0.77;;;21.60;63.10;;;;;;5116805;27;43972;-59
2022/10/26 12:17:14;;;;;;;0.90;0.70;;;21.60;63.20;;;;;;5115687;27;43803;-59
2022/10/26 12:20:03;;;;;;;5.80;1.02;;;21.60;63.20;;;;;;5120196;27;43506;-59
2022/10/26 12:22:38;;;;;;;1.17;0.90;;;21.60;63.10;;;;;;5115829;27;44088;-59
2022/10/26 12:25:15;;;;;;;0.90;0.90;;;21.60;63.10;;;;;;5114748;27;44902;-59
2022/10/26 12:27:42;;;;;;;1.73;0.85;;;21.70;63.30;;;;;;5118984;27;43470;-59
2022/10/26 12:30:19;;;;;;;0.90;0.90;;;21.70;63.30;;;;;;5118255;27;43474;-60
2022/10/26 12:32:49;;;;;;;1.45;0.90;;;21.70;63.20;;;;;;5117148;27;43404;-60
2022/10/26 12:35:36;;;;;;;3.47;0.90;;;21.70;63.20;;;;;;5115844;27;44099;-60
2022/10/26 12:38:22;;;;;;;1.10;1.00;;;21.70;63.30;;;;;;5113507;27;43433;-60
2022/10/26 12:41:09;;;;;;;0.80;0.80;;;21.70;63.20;;;;;;5115357;27;43437;-60
2022/10/26 12:43:39;;;;;;;1.27;1.10;;;21.70;63.20;;;;;;5112958;27;43477;-60
2022/10/26 12:46:12;;;;;;;1.05;1.05;;;21.70;63.10;;;;;;5118631;27;43796;-61
2022/10/26 12:48:45;;;;;;;1.05;0.90;;;21.70;63.10;;;;;;5113984;27;43438;-60
2022/10/26 12:51:21;;;;;;;1.40;1.02;;;21.70;63.20;;;;;;5122100;27;43397;-60
2022/10/26 12:54:24;;;;;;;1.42;0.80;;;21.70;63.10;;;;;;5120739;27;43397;-60
2022/10/26 12:56:56;;;;;;;1.10;1.00;;;21.70;63.10;;;;;;5119527;27;44142;-60
2022/10/26 12:59:29;;;;;;;1.00;1.00;;;21.70;63.00;;;;;;5116509;27;43386;-60
2022/10/26 13:02:34;;;;;;;1.15;1.05;;;21.70;63.30;;;;;;5118824;27;43438;-61
2022/10/26 13:05:18;;;;;;;0.90;0.90;;;21.70;63.30;;;;;;5122467;27;43436;-60
2022/10/26 13:07:46;;;;;;;1.42;1.00;;;21.60;63.20;;;;;;5114966;27;43814;-60
2022/10/26 13:10:13;;;;;;;1.20;1.02;;;21.60;63.20;;;;;;5118850;27;43422;-60
2022/10/26 13:12:46;;;;;;;1.50;1.13;;;21.60;63.30;;;;;;5120001;27;43473;-60
2022/10/26 13:15:38;;;;;;;1.67;1.30;;;21.60;63.30;;;;;;5114352;27;44085;-60
2022/10/26 13:18:06;;;;;;;1.73;1.02;;;21.60;63.40;;;;;;5116788;27;43752;-61
2022/10/26 13:20:35;;;;;;;1.70;1.02;;;21.60;63.40;;;;;;5116021;27;43992;-60